sensor_id;sensor_type;location;lat;lon;timestamp;P1;durP1;ratioP1;P2;durP2;ratioP2
11287;SDS011;5700;50.996;7.044;2023-05-20T00:02:02;2.42;;;1.10;;
11287;SDS011;5700;50.996;7.044;2023-05-20T00:05:06;1.92;;;1.10;;
11287;SDS011;5700;50.996;7.044;2023-05-20T00:08:08;3.45;;;1.40;;
11287;SDS011;5700;50.996;7.044;2023-05-20T00:11:10;1.40;;;0.90;;
11287;SDS011;5700;50.996;7.044;2023-05-20T00:14:11;3.40;;;1.30;;
11287;SDS011;5700;50.996;7.044;2023-05-20T00:17:13;2.60;;;1.40;;
11287;SDS011;5700;50.996;7.044;2023-05-20T00:20:16;2.65;;;1.15;;
11287;SDS011;5700;50.996;7.044;2023-05-20T00:23:17;2.17;;;1.13;;
11287;SDS011;5700;50.996;7.044;2023-05-20T00:26:19;1.75;;;1.00;;
11287;SDS011;5700;50.996;7.044;2023-05-20T00:29:21;2.45;;;1.30;;
11287;SDS011;5700;50.996;7.044;2023-05-20T00:32:23;3.72;;;1.25;;
11287;SDS011;5700;50.996;7.044;2023-05-20T00:35:26;2.78;;;1.35;;
11287;SDS011;5700;50.996;7.044;2023-05-20T00:38:28;2.47;;;1.10;;
11287;SDS011;5700;50.996;7.044;2023-05-20T00:41:29;3.08;;;1.13;;
11287;SDS011;5700;50.996;7.044;2023-05-20T00:44:31;2.47;;;1.08;;
11287;SDS011;5700;50.996;7.044;2023-05-20T00:47:32;2.53;;;1.08;;
11287;SDS011;5700;50.996;7.044;2023-05-20T00:50:37;2.65;;;1.30;;
11287;SDS011;5700;50.996;7.044;2023-05-20T00:53:39;3.30;;;1.48;;
11287;SDS011;5700;50.996;7.044;2023-05-20T00:56:41;2.72;;;1.20;;
11287;SDS011;5700;50.996;7.044;2023-05-20T00:59:43;4.28;;;1.17;;
11287;SDS011;5700;50.996;7.044;2023-05-20T01:02:45;2.88;;;1.00;;
11287;SDS011;5700;50.996;7.044;2023-05-20T01:05:51;2.45;;;1.10;;
11287;SDS011;5700;50.996;7.044;2023-05-20T01:08:53;4.68;;;1.45;;
11287;SDS011;5700;50.996;7.044;2023-05-20T01:11:55;2.28;;;1.30;;
11287;SDS011;5700;50.996;7.044;2023-05-20T01:15:02;1.67;;;0.90;;
11287;SDS011;5700;50.996;7.044;2023-05-20T01:18:07;1.65;;;1.00;;
11287;SDS011;5700;50.996;7.044;2023-05-20T01:21:11;2.40;;;1.17;;
11287;SDS011;5700;50.996;7.044;2023-05-20T01:24:15;2.08;;;1.10;;
11287;SDS011;5700;50.996;7.044;2023-05-20T01:27:16;1.75;;;1.23;;
11287;SDS011;5700;50.996;7.044;2023-05-20T01:30:19;2.10;;;1.02;;
11287;SDS011;5700;50.996;7.044;2023-05-20T01:33:21;2.92;;;1.27;;
11287;SDS011;5700;50.996;7.044;2023-05-20T01:36:24;2.88;;;1.33;;
11287;SDS011;5700;50.996;7.044;2023-05-20T01:39:27;2.47;;;1.10;;
11287;SDS011;5700;50.996;7.044;2023-05-20T01:42:30;1.77;;;1.20;;
11287;SDS011;5700;50.996;7.044;2023-05-20T01:45:32;3.00;;;1.17;;
11287;SDS011;5700;50.996;7.044;2023-05-20T01:48:33;1.92;;;1.15;;
11287;SDS011;5700;50.996;7.044;2023-05-20T01:51:35;2.20;;;1.17;;
11287;SDS011;5700;50.996;7.044;2023-05-20T01:54:38;3.40;;;1.38;;
11287;SDS011;5700;50.996;7.044;2023-05-20T01:57:40;1.95;;;1.35;;
11287;SDS011;5700;50.996;7.044;2023-05-20T02:00:41;3.13;;;1.50;;
11287;SDS011;5700;50.996;7.044;2023-05-20T02:03:43;1.85;;;1.13;;
11287;SDS011;5700;50.996;7.044;2023-05-20T02:06:45;5.22;;;1.40;;
11287;SDS011;5700;50.996;7.044;2023-05-20T02:09:48;2.15;;;1.20;;
11287;SDS011;5700;50.996;7.044;2023-05-20T02:12:49;1.73;;;1.05;;
11287;SDS011;5700;50.996;7.044;2023-05-20T02:15:51;2.33;;;1.20;;
11287;SDS011;5700;50.996;7.044;2023-05-20T02:18:53;2.20;;;1.17;;
11287;SDS011;5700;50.996;7.044;2023-05-20T02:21:54;1.95;;;1.00;;
11287;SDS011;5700;50.996;7.044;2023-05-20T02:24:57;1.70;;;1.23;;
11287;SDS011;5700;50.996;7.044;2023-05-20T02:27:59;2.25;;;1.13;;
11287;SDS011;5700;50.996;7.044;2023-05-20T02:31:00;2.83;;;1.40;;
11287;SDS011;5700;50.996;7.044;2023-05-20T02:34:02;2.67;;;1.30;;
11287;SDS011;5700;50.996;7.044;2023-05-20T02:37:04;3.05;;;1.10;;
11287;SDS011;5700;50.996;7.044;2023-05-20T02:40:07;4.05;;;1.65;;
11287;SDS011;5700;50.996;7.044;2023-05-20T02:43:09;3.22;;;1.27;;
11287;SDS011;5700;50.996;7.044;2023-05-20T02:46:11;2.70;;;1.30;;
11287;SDS011;5700;50.996;7.044;2023-05-20T02:49:13;2.17;;;1.23;;
11287;SDS011;5700;50.996;7.044;2023-05-20T02:52:14;3.67;;;1.75;;
11287;SDS011;5700;50.996;7.044;2023-05-20T02:55:17;2.65;;;1.38;;
11287;SDS011;5700;50.996;7.044;2023-05-20T02:58:19;2.10;;;1.42;;
11287;SDS011;5700;50.996;7.044;2023-05-20T03:01:25;1.90;;;1.30;;
11287;SDS011;5700;50.996;7.044;2023-05-20T03:04:28;4.13;;;1.67;;
11287;SDS011;5700;50.996;7.044;2023-05-20T03:07:31;3.25;;;1.45;;
11287;SDS011;5700;50.996;7.044;2023-05-20T03:10:36;3.97;;;1.58;;
11287;SDS011;5700;50.996;7.044;2023-05-20T03:13:38;2.40;;;1.65;;
11287;SDS011;5700;50.996;7.044;2023-05-20T03:16:40;2.55;;;1.52;;
11287;SDS011;5700;50.996;7.044;2023-05-20T03:19:43;3.35;;;1.40;;
11287;SDS011;5700;50.996;7.044;2023-05-20T03:22:47;2.33;;;1.27;;
11287;SDS011;5700;50.996;7.044;2023-05-20T03:25:50;3.17;;;1.55;;
11287;SDS011;5700;50.996;7.044;2023-05-20T03:28:52;2.22;;;1.30;;
11287;SDS011;5700;50.996;7.044;2023-05-20T03:31:53;4.05;;;1.33;;
11287;SDS011;5700;50.996;7.044;2023-05-20T03:34:55;3.53;;;1.73;;
11287;SDS011;5700;50.996;7.044;2023-05-20T03:37:59;4.25;;;1.70;;
11287;SDS011;5700;50.996;7.044;2023-05-20T03:41:02;2.67;;;1.58;;
11287;SDS011;5700;50.996;7.044;2023-05-20T03:44:04;3.70;;;1.40;;
11287;SDS011;5700;50.996;7.044;2023-05-20T03:47:05;3.45;;;1.50;;
11287;SDS011;5700;50.996;7.044;2023-05-20T03:50:07;3.42;;;1.65;;
11287;SDS011;5700;50.996;7.044;2023-05-20T03:53:09;4.05;;;1.70;;
11287;SDS011;5700;50.996;7.044;2023-05-20T03:56:12;2.45;;;1.60;;
11287;SDS011;5700;50.996;7.044;2023-05-20T03:59:14;4.47;;;1.88;;
11287;SDS011;5700;50.996;7.044;2023-05-20T04:02:17;3.80;;;2.00;;
11287;SDS011;5700;50.996;7.044;2023-05-20T04:05:18;4.03;;;1.70;;
11287;SDS011;5700;50.996;7.044;2023-05-20T04:08:20;3.60;;;1.60;;
11287;SDS011;5700;50.996;7.044;2023-05-20T04:11:26;3.28;;;1.73;;
11287;SDS011;5700;50.996;7.044;2023-05-20T04:14:27;3.92;;;1.80;;
11287;SDS011;5700;50.996;7.044;2023-05-20T04:17:29;2.85;;;1.60;;
11287;SDS011;5700;50.996;7.044;2023-05-20T04:20:31;4.65;;;1.85;;
11287;SDS011;5700;50.996;7.044;2023-05-20T04:23:33;3.53;;;1.85;;
11287;SDS011;5700;50.996;7.044;2023-05-20T04:26:35;4.25;;;1.60;;
11287;SDS011;5700;50.996;7.044;2023-05-20T04:29:38;4.25;;;1.90;;
11287;SDS011;5700;50.996;7.044;2023-05-20T04:32:40;4.50;;;2.13;;
11287;SDS011;5700;50.996;7.044;2023-05-20T04:35:42;3.05;;;1.63;;
11287;SDS011;5700;50.996;7.044;2023-05-20T04:38:43;4.13;;;1.88;;
11287;SDS011;5700;50.996;7.044;2023-05-20T04:41:47;4.20;;;1.80;;
11287;SDS011;5700;50.996;7.044;2023-05-20T04:44:50;4.60;;;1.85;;
11287;SDS011;5700;50.996;7.044;2023-05-20T04:47:51;4.57;;;1.80;;
11287;SDS011;5700;50.996;7.044;2023-05-20T04:50:53;3.20;;;1.77;;
11287;SDS011;5700;50.996;7.044;2023-05-20T04:53:54;3.50;;;1.92;;
11287;SDS011;5700;50.996;7.044;2023-05-20T04:56:59;3.05;;;1.88;;
11287;SDS011;5700;50.996;7.044;2023-05-20T05:00:02;4.25;;;2.17;;
11287;SDS011;5700;50.996;7.044;2023-05-20T05:03:06;3.35;;;1.83;;
11287;SDS011;5700;50.996;7.044;2023-05-20T05:06:08;3.47;;;2.00;;
11287;SDS011;5700;50.996;7.044;2023-05-20T05:09:10;3.35;;;2.13;;
11287;SDS011;5700;50.996;7.044;2023-05-20T05:12:14;3.35;;;1.80;;
11287;SDS011;5700;50.996;7.044;2023-05-20T05:15:16;3.78;;;1.85;;
11287;SDS011;5700;50.996;7.044;2023-05-20T05:18:21;3.50;;;1.77;;
11287;SDS011;5700;50.996;7.044;2023-05-20T05:21:23;5.90;;;2.03;;
11287;SDS011;5700;50.996;7.044;2023-05-20T05:24:24;5.05;;;1.90;;
11287;SDS011;5700;50.996;7.044;2023-05-20T05:27:27;6.00;;;2.00;;
11287;SDS011;5700;50.996;7.044;2023-05-20T05:30:30;2.63;;;1.80;;
11287;SDS011;5700;50.996;7.044;2023-05-20T05:33:32;3.40;;;1.80;;
11287;SDS011;5700;50.996;7.044;2023-05-20T05:36:34;4.13;;;2.00;;
11287;SDS011;5700;50.996;7.044;2023-05-20T05:39:35;4.18;;;2.20;;
11287;SDS011;5700;50.996;7.044;2023-05-20T05:42:39;3.22;;;1.70;;
11287;SDS011;5700;50.996;7.044;2023-05-20T05:45:43;3.65;;;2.08;;
11287;SDS011;5700;50.996;7.044;2023-05-20T05:48:45;6.07;;;2.20;;
11287;SDS011;5700;50.996;7.044;2023-05-20T05:51:48;2.42;;;1.60;;
11287;SDS011;5700;50.996;7.044;2023-05-20T05:54:50;4.40;;;1.83;;
11287;SDS011;5700;50.996;7.044;2023-05-20T05:57:53;4.05;;;1.77;;
11287;SDS011;5700;50.996;7.044;2023-05-20T06:00:54;3.80;;;1.52;;
11287;SDS011;5700;50.996;7.044;2023-05-20T06:03:56;6.05;;;2.20;;
11287;SDS011;5700;50.996;7.044;2023-05-20T06:06:57;4.10;;;1.90;;
11287;SDS011;5700;50.996;7.044;2023-05-20T06:09:59;2.53;;;1.45;;
11287;SDS011;5700;50.996;7.044;2023-05-20T06:13:02;2.65;;;1.52;;
11287;SDS011;5700;50.996;7.044;2023-05-20T06:16:03;4.13;;;1.88;;
11287;SDS011;5700;50.996;7.044;2023-05-20T06:19:05;2.90;;;1.55;;
11287;SDS011;5700;50.996;7.044;2023-05-20T06:22:08;4.72;;;1.77;;
11287;SDS011;5700;50.996;7.044;2023-05-20T06:25:09;2.53;;;1.38;;
11287;SDS011;5700;50.996;7.044;2023-05-20T06:28:15;4.70;;;1.50;;
11287;SDS011;5700;50.996;7.044;2023-05-20T06:31:17;4.05;;;1.63;;
11287;SDS011;5700;50.996;7.044;2023-05-20T06:34:19;2.78;;;1.65;;
11287;SDS011;5700;50.996;7.044;2023-05-20T06:37:20;4.53;;;1.63;;
11287;SDS011;5700;50.996;7.044;2023-05-20T06:40:23;4.78;;;1.73;;
11287;SDS011;5700;50.996;7.044;2023-05-20T06:43:32;3.55;;;1.77;;
11287;SDS011;5700;50.996;7.044;2023-05-20T06:46:35;5.18;;;1.73;;
11287;SDS011;5700;50.996;7.044;2023-05-20T06:49:36;4.50;;;1.80;;
11287;SDS011;5700;50.996;7.044;2023-05-20T06:52:38;3.72;;;1.80;;
11287;SDS011;5700;50.996;7.044;2023-05-20T06:55:39;3.00;;;1.70;;
11287;SDS011;5700;50.996;7.044;2023-05-20T06:58:43;4.30;;;1.73;;
11287;SDS011;5700;50.996;7.044;2023-05-20T07:01:44;3.42;;;2.03;;
11287;SDS011;5700;50.996;7.044;2023-05-20T07:04:49;3.05;;;1.33;;
11287;SDS011;5700;50.996;7.044;2023-05-20T07:07:50;4.13;;;1.92;;
11287;SDS011;5700;50.996;7.044;2023-05-20T07:10:54;3.63;;;1.80;;
11287;SDS011;5700;50.996;7.044;2023-05-20T07:13:58;3.58;;;1.70;;
11287;SDS011;5700;50.996;7.044;2023-05-20T07:17:00;3.70;;;1.92;;
11287;SDS011;5700;50.996;7.044;2023-05-20T07:20:03;4.30;;;1.65;;
11287;SDS011;5700;50.996;7.044;2023-05-20T07:23:04;3.10;;;1.52;;
11287;SDS011;5700;50.996;7.044;2023-05-20T07:26:06;3.58;;;1.73;;
11287;SDS011;5700;50.996;7.044;2023-05-20T07:29:09;5.03;;;1.90;;
11287;SDS011;5700;50.996;7.044;2023-05-20T07:32:12;5.47;;;2.13;;
11287;SDS011;5700;50.996;7.044;2023-05-20T07:35:13;3.42;;;2.13;;
11287;SDS011;5700;50.996;7.044;2023-05-20T07:38:15;3.55;;;1.85;;
11287;SDS011;5700;50.996;7.044;2023-05-20T07:41:17;3.97;;;1.92;;
11287;SDS011;5700;50.996;7.044;2023-05-20T07:44:19;4.78;;;1.83;;
11287;SDS011;5700;50.996;7.044;2023-05-20T07:47:22;2.83;;;1.80;;
11287;SDS011;5700;50.996;7.044;2023-05-20T07:50:23;3.80;;;1.83;;
11287;SDS011;5700;50.996;7.044;2023-05-20T07:53:25;3.88;;;2.25;;
11287;SDS011;5700;50.996;7.044;2023-05-20T07:56:27;4.68;;;2.00;;
11287;SDS011;5700;50.996;7.044;2023-05-20T07:59:30;4.90;;;2.33;;
11287;SDS011;5700;50.996;7.044;2023-05-20T08:02:32;5.75;;;2.10;;
11287;SDS011;5700;50.996;7.044;2023-05-20T08:05:35;3.55;;;2.20;;
11287;SDS011;5700;50.996;7.044;2023-05-20T08:08:36;4.10;;;2.10;;
11287;SDS011;5700;50.996;7.044;2023-05-20T08:11:39;6.45;;;2.33;;
11287;SDS011;5700;50.996;7.044;2023-05-20T08:14:42;4.15;;;2.20;;
11287;SDS011;5700;50.996;7.044;2023-05-20T08:17:44;5.90;;;2.30;;
11287;SDS011;5700;50.996;7.044;2023-05-20T08:20:46;3.70;;;1.88;;
11287;SDS011;5700;50.996;7.044;2023-05-20T08:23:48;5.53;;;2.35;;
11287;SDS011;5700;50.996;7.044;2023-05-20T08:26:49;3.30;;;2.00;;
11287;SDS011;5700;50.996;7.044;2023-05-20T08:29:52;3.75;;;1.92;;
11287;SDS011;5700;50.996;7.044;2023-05-20T08:32:53;3.45;;;1.88;;
11287;SDS011;5700;50.996;7.044;2023-05-20T08:35:55;3.83;;;1.90;;
11287;SDS011;5700;50.996;7.044;2023-05-20T08:38:56;3.90;;;2.30;;
11287;SDS011;5700;50.996;7.044;2023-05-20T08:41:58;5.10;;;2.50;;
11287;SDS011;5700;50.996;7.044;2023-05-20T08:45:01;3.47;;;1.95;;
11287;SDS011;5700;50.996;7.044;2023-05-20T08:48:03;3.38;;;1.90;;
11287;SDS011;5700;50.996;7.044;2023-05-20T08:51:05;6.28;;;2.20;;
11287;SDS011;5700;50.996;7.044;2023-05-20T08:54:08;3.33;;;2.25;;
11287;SDS011;5700;50.996;7.044;2023-05-20T08:57:11;4.18;;;2.17;;
11287;SDS011;5700;50.996;7.044;2023-05-20T09:00:17;3.92;;;1.67;;
11287;SDS011;5700;50.996;7.044;2023-05-20T09:03:19;5.95;;;2.60;;
11287;SDS011;5700;50.996;7.044;2023-05-20T09:06:21;3.70;;;1.83;;
11287;SDS011;5700;50.996;7.044;2023-05-20T09:09:23;6.30;;;1.98;;
11287;SDS011;5700;50.996;7.044;2023-05-20T09:12:25;4.93;;;1.70;;
11287;SDS011;5700;50.996;7.044;2023-05-20T09:15:29;3.22;;;2.30;;
11287;SDS011;5700;50.996;7.044;2023-05-20T09:18:31;4.00;;;1.90;;
11287;SDS011;5700;50.996;7.044;2023-05-20T09:21:33;3.65;;;2.03;;
11287;SDS011;5700;50.996;7.044;2023-05-20T09:24:37;2.97;;;1.55;;
11287;SDS011;5700;50.996;7.044;2023-05-20T09:27:41;4.70;;;2.05;;
11287;SDS011;5700;50.996;7.044;2023-05-20T09:30:44;5.03;;;2.25;;
11287;SDS011;5700;50.996;7.044;2023-05-20T09:33:52;3.70;;;2.08;;
11287;SDS011;5700;50.996;7.044;2023-05-20T09:36:55;3.22;;;1.92;;
11287;SDS011;5700;50.996;7.044;2023-05-20T09:40:00;3.60;;;2.22;;
11287;SDS011;5700;50.996;7.044;2023-05-20T09:43:08;3.30;;;2.10;;
11287;SDS011;5700;50.996;7.044;2023-05-20T09:46:13;3.70;;;1.63;;
11287;SDS011;5700;50.996;7.044;2023-05-20T09:49:18;3.45;;;2.10;;
11287;SDS011;5700;50.996;7.044;2023-05-20T09:52:21;3.80;;;2.25;;
11287;SDS011;5700;50.996;7.044;2023-05-20T09:55:23;3.17;;;1.90;;
11287;SDS011;5700;50.996;7.044;2023-05-20T09:58:25;5.20;;;2.10;;
11287;SDS011;5700;50.996;7.044;2023-05-20T10:01:32;5.15;;;2.00;;
11287;SDS011;5700;50.996;7.044;2023-05-20T10:04:35;3.55;;;2.10;;
11287;SDS011;5700;50.996;7.044;2023-05-20T10:07:48;4.38;;;2.10;;
11287;SDS011;5700;50.996;7.044;2023-05-20T10:11:11;3.72;;;2.20;;
11287;SDS011;5700;50.996;7.044;2023-05-20T10:14:33;5.38;;;2.20;;
11287;SDS011;5700;50.996;7.044;2023-05-20T10:17:43;5.05;;;2.40;;
11287;SDS011;5700;50.996;7.044;2023-05-20T10:20:50;4.97;;;2.00;;
11287;SDS011;5700;50.996;7.044;2023-05-20T10:23:52;3.80;;;2.15;;
11287;SDS011;5700;50.996;7.044;2023-05-20T10:26:54;3.83;;;2.08;;
11287;SDS011;5700;50.996;7.044;2023-05-20T10:29:56;3.25;;;2.05;;
11287;SDS011;5700;50.996;7.044;2023-05-20T10:33:02;2.40;;;1.75;;
11287;SDS011;5700;50.996;7.044;2023-05-20T10:36:06;2.78;;;1.77;;
11287;SDS011;5700;50.996;7.044;2023-05-20T10:39:08;7.10;;;2.38;;
11287;SDS011;5700;50.996;7.044;2023-05-20T10:42:16;6.15;;;2.50;;
11287;SDS011;5700;50.996;7.044;2023-05-20T10:45:31;5.85;;;2.38;;
11287;SDS011;5700;50.996;7.044;2023-05-20T10:48:40;2.85;;;1.80;;
11287;SDS011;5700;50.996;7.044;2023-05-20T10:51:43;4.20;;;2.33;;
11287;SDS011;5700;50.996;7.044;2023-05-20T10:54:46;3.40;;;2.00;;
11287;SDS011;5700;50.996;7.044;2023-05-20T10:57:50;3.63;;;1.90;;
11287;SDS011;5700;50.996;7.044;2023-05-20T11:00:52;4.18;;;2.40;;
11287;SDS011;5700;50.996;7.044;2023-05-20T11:03:55;4.20;;;2.38;;
11287;SDS011;5700;50.996;7.044;2023-05-20T11:06:57;4.43;;;2.42;;
11287;SDS011;5700;50.996;7.044;2023-05-20T11:09:59;4.38;;;2.55;;
11287;SDS011;5700;50.996;7.044;2023-05-20T11:13:01;3.42;;;2.10;;
11287;SDS011;5700;50.996;7.044;2023-05-20T11:16:03;5.07;;;2.70;;
11287;SDS011;5700;50.996;7.044;2023-05-20T11:19:07;6.70;;;2.42;;
11287;SDS011;5700;50.996;7.044;2023-05-20T11:22:09;4.72;;;2.70;;
11287;SDS011;5700;50.996;7.044;2023-05-20T11:25:11;4.80;;;2.50;;
11287;SDS011;5700;50.996;7.044;2023-05-20T11:28:13;4.32;;;2.45;;
11287;SDS011;5700;50.996;7.044;2023-05-20T11:31:15;4.50;;;2.65;;
11287;SDS011;5700;50.996;7.044;2023-05-20T11:34:20;4.65;;;2.60;;
11287;SDS011;5700;50.996;7.044;2023-05-20T11:37:22;6.45;;;2.60;;
11287;SDS011;5700;50.996;7.044;2023-05-20T11:40:26;6.20;;;2.67;;
11287;SDS011;5700;50.996;7.044;2023-05-20T11:43:28;4.95;;;2.83;;
11287;SDS011;5700;50.996;7.044;2023-05-20T11:46:30;5.75;;;2.50;;
11287;SDS011;5700;50.996;7.044;2023-05-20T11:49:39;3.70;;;2.28;;
11287;SDS011;5700;50.996;7.044;2023-05-20T11:52:41;4.60;;;2.38;;
11287;SDS011;5700;50.996;7.044;2023-05-20T11:55:44;5.18;;;3.00;;
11287;SDS011;5700;50.996;7.044;2023-05-20T11:58:46;5.38;;;2.78;;
11287;SDS011;5700;50.996;7.044;2023-05-20T12:01:48;5.22;;;2.50;;
11287;SDS011;5700;50.996;7.044;2023-05-20T12:04:54;5.30;;;2.80;;
11287;SDS011;5700;50.996;7.044;2023-05-20T12:07:57;6.25;;;2.83;;
11287;SDS011;5700;50.996;7.044;2023-05-20T12:10:58;5.18;;;2.85;;
11287;SDS011;5700;50.996;7.044;2023-05-20T12:14:00;4.55;;;2.80;;
11287;SDS011;5700;50.996;7.044;2023-05-20T12:17:02;5.88;;;2.47;;
11287;SDS011;5700;50.996;7.044;2023-05-20T12:20:06;3.67;;;2.55;;
11287;SDS011;5700;50.996;7.044;2023-05-20T12:23:08;4.10;;;2.55;;
11287;SDS011;5700;50.996;7.044;2023-05-20T12:26:10;3.92;;;2.60;;
11287;SDS011;5700;50.996;7.044;2023-05-20T12:29:12;4.95;;;2.78;;
11287;SDS011;5700;50.996;7.044;2023-05-20T12:32:14;4.78;;;2.97;;
11287;SDS011;5700;50.996;7.044;2023-05-20T12:35:23;4.13;;;2.80;;
11287;SDS011;5700;50.996;7.044;2023-05-20T12:38:25;5.00;;;2.63;;
11287;SDS011;5700;50.996;7.044;2023-05-20T12:41:27;4.43;;;2.50;;
11287;SDS011;5700;50.996;7.044;2023-05-20T12:44:28;5.82;;;2.83;;
11287;SDS011;5700;50.996;7.044;2023-05-20T12:47:30;4.35;;;2.58;;
11287;SDS011;5700;50.996;7.044;2023-05-20T12:50:33;4.40;;;2.60;;
11287;SDS011;5700;50.996;7.044;2023-05-20T12:53:34;6.00;;;2.78;;
11287;SDS011;5700;50.996;7.044;2023-05-20T12:56:36;6.20;;;2.80;;
11287;SDS011;5700;50.996;7.044;2023-05-20T12:59:38;5.30;;;2.88;;
11287;SDS011;5700;50.996;7.044;2023-05-20T13:02:40;5.55;;;2.65;;
11287;SDS011;5700;50.996;7.044;2023-05-20T13:05:44;5.63;;;2.88;;
11287;SDS011;5700;50.996;7.044;2023-05-20T13:08:46;4.35;;;2.60;;
11287;SDS011;5700;50.996;7.044;2023-05-20T13:11:47;6.38;;;3.05;;
11287;SDS011;5700;50.996;7.044;2023-05-20T13:14:52;4.78;;;2.22;;
11287;SDS011;5700;50.996;7.044;2023-05-20T13:17:54;5.65;;;2.88;;
11287;SDS011;5700;50.996;7.044;2023-05-20T13:20:56;4.95;;;2.03;;
11287;SDS011;5700;50.996;7.044;2023-05-20T13:23:59;4.40;;;2.60;;
11287;SDS011;5700;50.996;7.044;2023-05-20T13:27:01;5.15;;;2.88;;
11287;SDS011;5700;50.996;7.044;2023-05-20T13:30:03;5.32;;;2.42;;
11287;SDS011;5700;50.996;7.044;2023-05-20T13:33:05;4.50;;;2.67;;
11287;SDS011;5700;50.996;7.044;2023-05-20T13:36:08;5.07;;;2.72;;
11287;SDS011;5700;50.996;7.044;2023-05-20T13:39:10;4.18;;;2.25;;
11287;SDS011;5700;50.996;7.044;2023-05-20T13:42:11;4.38;;;2.50;;
11287;SDS011;5700;50.996;7.044;2023-05-20T13:45:13;4.50;;;2.50;;
11287;SDS011;5700;50.996;7.044;2023-05-20T13:48:18;6.80;;;2.97;;
11287;SDS011;5700;50.996;7.044;2023-05-20T13:51:21;3.67;;;2.22;;
11287;SDS011;5700;50.996;7.044;2023-05-20T13:54:23;4.35;;;2.45;;
11287;SDS011;5700;50.996;7.044;2023-05-20T13:57:25;4.25;;;2.70;;
11287;SDS011;5700;50.996;7.044;2023-05-20T14:00:26;3.67;;;2.35;;
11287;SDS011;5700;50.996;7.044;2023-05-20T14:03:28;3.47;;;2.30;;
11287;SDS011;5700;50.996;7.044;2023-05-20T14:06:31;5.80;;;2.63;;
11287;SDS011;5700;50.996;7.044;2023-05-20T14:09:33;3.45;;;2.50;;
11287;SDS011;5700;50.996;7.044;2023-05-20T14:12:34;5.38;;;2.70;;
11287;SDS011;5700;50.996;7.044;2023-05-20T14:15:36;4.72;;;2.45;;
11287;SDS011;5700;50.996;7.044;2023-05-20T14:18:37;5.43;;;3.03;;
11287;SDS011;5700;50.996;7.044;2023-05-20T14:21:41;5.57;;;2.30;;
11287;SDS011;5700;50.996;7.044;2023-05-20T14:24:43;5.25;;;2.63;;
11287;SDS011;5700;50.996;7.044;2023-05-20T14:27:44;3.60;;;2.40;;
11287;SDS011;5700;50.996;7.044;2023-05-20T14:30:46;3.05;;;2.30;;
11287;SDS011;5700;50.996;7.044;2023-05-20T14:33:47;4.55;;;2.60;;
11287;SDS011;5700;50.996;7.044;2023-05-20T14:36:50;6.18;;;2.55;;
11287;SDS011;5700;50.996;7.044;2023-05-20T14:39:52;3.13;;;2.15;;
11287;SDS011;5700;50.996;7.044;2023-05-20T14:42:53;4.18;;;2.60;;
11287;SDS011;5700;50.996;7.044;2023-05-20T14:45:55;5.10;;;2.67;;
11287;SDS011;5700;50.996;7.044;2023-05-20T14:48:57;4.22;;;2.20;;
11287;SDS011;5700;50.996;7.044;2023-05-20T14:51:59;4.63;;;2.47;;
11287;SDS011;5700;50.996;7.044;2023-05-20T14:55:01;4.47;;;2.50;;
11287;SDS011;5700;50.996;7.044;2023-05-20T14:58:03;2.75;;;2.20;;
11287;SDS011;5700;50.996;7.044;2023-05-20T15:01:04;4.15;;;2.30;;
11287;SDS011;5700;50.996;7.044;2023-05-20T15:04:05;4.63;;;2.25;;
11287;SDS011;5700;50.996;7.044;2023-05-20T15:07:08;5.18;;;2.35;;
11287;SDS011;5700;50.996;7.044;2023-05-20T15:10:10;3.88;;;2.28;;
11287;SDS011;5700;50.996;7.044;2023-05-20T15:13:14;5.47;;;2.30;;
11287;SDS011;5700;50.996;7.044;2023-05-20T15:16:16;3.40;;;2.10;;
11287;SDS011;5700;50.996;7.044;2023-05-20T15:19:18;4.45;;;2.30;;
11287;SDS011;5700;50.996;7.044;2023-05-20T15:22:22;5.93;;;2.30;;
11287;SDS011;5700;50.996;7.044;2023-05-20T15:25:25;4.28;;;2.28;;
11287;SDS011;5700;50.996;7.044;2023-05-20T15:28:30;3.22;;;1.90;;
11287;SDS011;5700;50.996;7.044;2023-05-20T15:31:31;4.18;;;2.53;;
11287;SDS011;5700;50.996;7.044;2023-05-20T15:34:33;3.05;;;2.00;;
11287;SDS011;5700;50.996;7.044;2023-05-20T15:37:39;4.88;;;2.10;;
11287;SDS011;5700;50.996;7.044;2023-05-20T15:40:41;4.93;;;2.38;;
11287;SDS011;5700;50.996;7.044;2023-05-20T15:43:43;4.25;;;2.10;;
11287;SDS011;5700;50.996;7.044;2023-05-20T15:46:46;4.53;;;2.20;;
11287;SDS011;5700;50.996;7.044;2023-05-20T15:49:48;5.38;;;2.25;;
11287;SDS011;5700;50.996;7.044;2023-05-20T15:52:52;4.50;;;2.55;;
11287;SDS011;5700;50.996;7.044;2023-05-20T15:55:53;7.07;;;2.70;;
11287;SDS011;5700;50.996;7.044;2023-05-20T15:58:55;4.25;;;2.53;;
11287;SDS011;5700;50.996;7.044;2023-05-20T16:01:59;5.70;;;2.83;;
11287;SDS011;5700;50.996;7.044;2023-05-20T16:05:01;4.35;;;2.33;;
11287;SDS011;5700;50.996;7.044;2023-05-20T16:08:04;7.40;;;2.90;;
11287;SDS011;5700;50.996;7.044;2023-05-20T16:11:06;6.10;;;2.40;;
11287;SDS011;5700;50.996;7.044;2023-05-20T16:14:07;4.88;;;2.70;;
11287;SDS011;5700;50.996;7.044;2023-05-20T16:17:10;5.15;;;3.00;;
11287;SDS011;5700;50.996;7.044;2023-05-20T16:20:20;4.63;;;2.63;;
11287;SDS011;5700;50.996;7.044;2023-05-20T16:23:23;4.97;;;2.90;;
11287;SDS011;5700;50.996;7.044;2023-05-20T16:26:25;9.60;;;3.70;;
11287;SDS011;5700;50.996;7.044;2023-05-20T16:29:26;5.38;;;3.05;;
11287;SDS011;5700;50.996;7.044;2023-05-20T16:32:28;5.70;;;2.80;;
11287;SDS011;5700;50.996;7.044;2023-05-20T16:35:30;4.20;;;2.22;;
11287;SDS011;5700;50.996;7.044;2023-05-20T16:38:33;5.82;;;2.80;;
11287;SDS011;5700;50.996;7.044;2023-05-20T16:41:34;5.97;;;2.67;;
11287;SDS011;5700;50.996;7.044;2023-05-20T16:44:36;4.63;;;2.75;;
11287;SDS011;5700;50.996;7.044;2023-05-20T16:47:41;5.43;;;2.72;;
11287;SDS011;5700;50.996;7.044;2023-05-20T16:50:43;3.50;;;2.42;;
11287;SDS011;5700;50.996;7.044;2023-05-20T16:53:46;4.22;;;2.53;;
11287;SDS011;5700;50.996;7.044;2023-05-20T16:56:47;6.97;;;2.72;;
11287;SDS011;5700;50.996;7.044;2023-05-20T16:59:49;4.82;;;2.70;;
11287;SDS011;5700;50.996;7.044;2023-05-20T17:02:51;4.90;;;2.42;;
11287;SDS011;5700;50.996;7.044;2023-05-20T17:05:53;3.95;;;2.40;;
11287;SDS011;5700;50.996;7.044;2023-05-20T17:08:56;3.90;;;2.03;;
11287;SDS011;5700;50.996;7.044;2023-05-20T17:11:58;5.05;;;2.55;;
11287;SDS011;5700;50.996;7.044;2023-05-20T17:15:00;4.30;;;2.33;;
11287;SDS011;5700;50.996;7.044;2023-05-20T17:18:01;4.47;;;2.55;;
11287;SDS011;5700;50.996;7.044;2023-05-20T17:21:03;5.65;;;2.55;;
11287;SDS011;5700;50.996;7.044;2023-05-20T17:24:06;4.53;;;2.40;;
11287;SDS011;5700;50.996;7.044;2023-05-20T17:27:08;4.03;;;2.53;;
11287;SDS011;5700;50.996;7.044;2023-05-20T17:30:10;5.05;;;2.63;;
11287;SDS011;5700;50.996;7.044;2023-05-20T17:33:12;3.95;;;2.22;;
11287;SDS011;5700;50.996;7.044;2023-05-20T17:36:14;5.28;;;2.72;;
11287;SDS011;5700;50.996;7.044;2023-05-20T17:39:16;4.00;;;2.70;;
11287;SDS011;5700;50.996;7.044;2023-05-20T17:42:18;5.57;;;3.17;;
11287;SDS011;5700;50.996;7.044;2023-05-20T17:45:20;3.85;;;2.15;;
11287;SDS011;5700;50.996;7.044;2023-05-20T17:48:21;6.80;;;2.80;;
11287;SDS011;5700;50.996;7.044;2023-05-20T17:51:23;4.88;;;2.22;;
11287;SDS011;5700;50.996;7.044;2023-05-20T17:54:25;6.60;;;2.60;;
11287;SDS011;5700;50.996;7.044;2023-05-20T17:57:27;5.05;;;2.97;;
11287;SDS011;5700;50.996;7.044;2023-05-20T18:00:28;4.22;;;2.40;;
11287;SDS011;5700;50.996;7.044;2023-05-20T18:03:33;5.00;;;2.45;;
11287;SDS011;5700;50.996;7.044;2023-05-20T18:06:34;4.93;;;2.33;;
11287;SDS011;5700;50.996;7.044;2023-05-20T18:09:37;6.40;;;2.95;;
11287;SDS011;5700;50.996;7.044;2023-05-20T18:12:39;4.80;;;2.83;;
11287;SDS011;5700;50.996;7.044;2023-05-20T18:15:41;4.28;;;2.55;;
11287;SDS011;5700;50.996;7.044;2023-05-20T18:18:43;4.68;;;2.80;;
11287;SDS011;5700;50.996;7.044;2023-05-20T18:21:44;5.88;;;2.33;;
11287;SDS011;5700;50.996;7.044;2023-05-20T18:24:47;4.03;;;2.42;;
11287;SDS011;5700;50.996;7.044;2023-05-20T18:27:48;5.45;;;2.88;;
11287;SDS011;5700;50.996;7.044;2023-05-20T18:30:53;4.57;;;2.80;;
11287;SDS011;5700;50.996;7.044;2023-05-20T18:33:56;4.50;;;2.83;;
11287;SDS011;5700;50.996;7.044;2023-05-20T18:36:58;4.68;;;2.85;;